createdAt,value
2022-09-18T00:03:41.885Z,9.20
2022-09-18T00:09:44.384Z,9.20
2022-09-18T00:15:55.095Z,9.10
2022-09-18T00:21:57.002Z,9.10
2022-09-18T00:27:59.221Z,9.10
2022-09-18T00:34:04.568Z,9.00
2022-09-18T00:40:06.804Z,9.00
2022-09-18T00:46:30.229Z,9.20
2022-09-18T00:52:42.316Z,9.40
2022-09-18T00:58:46.075Z,9.50
2022-09-18T01:04:49.245Z,9.60
2022-09-18T01:11:07.079Z,9.60
2022-09-18T01:17:15.477Z,9.80
2022-09-18T01:23:47.319Z,9.70
2022-09-18T01:30:02.478Z,9.70
2022-09-18T01:36:10.074Z,9.60
2022-09-18T01:42:14.085Z,9.70
2022-09-18T01:48:30.511Z,9.70
2022-09-18T01:54:38.046Z,9.70
2022-09-18T02:00:46.809Z,9.70
2022-09-18T02:06:57.546Z,9.80
2022-09-18T02:13:01.507Z,9.90
2022-09-18T02:19:13.468Z,9.90
2022-09-18T02:25:18.990Z,9.80
2022-09-18T02:31:21.232Z,9.90
2022-09-18T02:37:56.885Z,9.90
2022-09-18T02:44:09.863Z,9.90
2022-09-18T02:50:21.889Z,9.80
2022-09-18T02:56:44.537Z,9.80
2022-09-18T03:02:47.755Z,9.80
2022-09-18T03:08:56.643Z,9.70
2022-09-18T03:14:58.450Z,9.50
2022-09-18T03:21:00.281Z,9.40
2022-09-18T03:27:02.869Z,9.20
2022-09-18T03:33:05.054Z,9.20
2022-09-18T03:39:07.675Z,9.20
2022-09-18T03:45:10.699Z,9.30
2022-09-18T03:51:12.670Z,9.40
2022-09-18T03:57:14.669Z,9.40
2022-09-18T04:03:40.165Z,9.40
2022-09-18T04:10:20.616Z,9.40
2022-09-18T04:16:22.653Z,9.50
2022-09-18T04:22:26.763Z,9.50
2022-09-18T04:28:28.627Z,9.50
2022-09-18T04:34:30.534Z,9.40
2022-09-18T04:40:32.585Z,9.30
2022-09-18T04:46:35.395Z,9.30
2022-09-18T04:52:37.759Z,9.30
2022-09-18T04:58:39.619Z,9.40
2022-09-18T05:04:41.468Z,9.40
2022-09-18T05:10:54.154Z,9.50
2022-09-18T05:16:56.471Z,9.60
2022-09-18T05:23:08.679Z,9.60
2022-09-18T05:29:12.033Z,9.60
2022-09-18T05:35:15.100Z,9.70
2022-09-18T05:41:18.163Z,9.80
2022-09-18T05:47:20.615Z,9.90
2022-09-18T05:53:22.704Z,10.00
2022-09-18T05:59:34.356Z,10.10
2022-09-18T06:05:37.811Z,10.20
2022-09-18T06:11:39.720Z,10.30
2022-09-18T06:17:42.062Z,10.40
2022-09-18T06:23:44.051Z,10.60
2022-09-18T06:29:54.173Z,10.60
2022-09-18T06:36:11.908Z,10.70
2022-09-18T06:42:20.250Z,10.70
2022-09-18T06:48:36.929Z,10.80
2022-09-18T06:54:38.744Z,10.90
2022-09-18T07:00:40.617Z,11.20
2022-09-18T07:06:46.364Z,11.70
2022-09-18T07:12:49.463Z,12.10
2022-09-18T07:18:53.907Z,12.10
2022-09-18T07:24:56.232Z,12.00
2022-09-18T07:31:04.030Z,12.00
2022-09-18T07:37:06.017Z,11.90
2022-09-18T07:43:10.292Z,11.90
2022-09-18T07:49:18.679Z,11.90
2022-09-18T07:55:22.321Z,11.90
2022-09-18T08:01:27.491Z,12.00
2022-09-18T08:07:32.275Z,12.10
2022-09-18T08:13:51.614Z,12.30
2022-09-18T08:20:14.284Z,12.70
2022-09-18T08:26:22.636Z,12.70
2022-09-18T08:32:26.446Z,12.70
2022-09-18T08:38:30.996Z,12.60
2022-09-18T08:44:59.337Z,12.40
2022-09-18T08:51:14.077Z,12.50
2022-09-18T08:57:39.268Z,12.60
2022-09-18T09:03:55.855Z,12.60
2022-09-18T09:10:07.117Z,12.60
2022-09-18T09:16:24.322Z,12.50
2022-09-18T09:22:47.587Z,12.50
2022-09-18T09:29:01.173Z,12.60
2022-09-18T09:35:29.649Z,12.60
2022-09-18T09:41:41.798Z,12.60
2022-09-18T09:47:52.241Z,12.60
2022-09-18T09:53:56.027Z,12.50
2022-09-18T10:00:15.293Z,12.40
2022-09-18T10:06:50.847Z,12.20
2022-09-18T10:13:01.584Z,12.10
2022-09-18T10:19:03.915Z,12.00
2022-09-18T10:25:16.943Z,11.80
2022-09-18T10:31:19.903Z,11.90
2022-09-18T10:37:28.581Z,11.90
2022-09-18T10:43:34.776Z,12.00
2022-09-18T10:49:49.786Z,12.10
2022-09-18T10:55:55.929Z,12.10
2022-09-18T11:02:00.154Z,12.10
2022-09-18T11:08:13.104Z,12.00
2022-09-18T11:14:24.970Z,11.90
2022-09-18T11:20:45.038Z,11.80
2022-09-18T11:26:54.521Z,11.80
2022-09-18T11:33:13.621Z,11.70
2022-09-18T11:39:24.688Z,11.60
2022-09-18T11:45:34.828Z,11.60
2022-09-18T11:51:57.698Z,11.70
2022-09-18T11:58:20.155Z,11.70
2022-09-18T12:05:03.017Z,11.70
2022-09-18T12:11:12.627Z,11.80
2022-09-18T12:17:44.865Z,11.70
2022-09-18T12:23:47.231Z,11.80
2022-09-18T12:29:59.747Z,11.80
2022-09-18T12:36:34.220Z,11.80
2022-09-18T12:42:55.753Z,11.70
2022-09-18T12:49:09.690Z,11.60
2022-09-18T12:55:51.049Z,11.50
2022-09-18T13:02:27.050Z,11.30
2022-09-18T13:08:35.095Z,11.20
2022-09-18T13:14:52.973Z,11.00
2022-09-18T13:20:58.523Z,10.90
2022-09-18T13:27:03.994Z,10.80
2022-09-18T13:33:05.911Z,10.70
2022-09-18T13:39:26.917Z,10.60
2022-09-18T13:45:37.715Z,10.60
2022-09-18T13:51:40.637Z,10.70
2022-09-18T13:57:44.203Z,10.90
2022-09-18T14:03:46.245Z,11.00
2022-09-18T14:09:58.232Z,11.00
2022-09-18T14:16:24.060Z,11.10
2022-09-18T14:22:29.855Z,11.20
2022-09-18T14:28:32.206Z,11.30
2022-09-18T14:34:38.419Z,11.60
2022-09-18T14:40:40.558Z,11.80
2022-09-18T14:46:55.682Z,11.90
2022-09-18T14:52:59.738Z,11.90
2022-09-18T14:59:06.617Z,11.90
2022-09-18T15:05:12.443Z,12.00
2022-09-18T15:11:16.113Z,12.10
2022-09-18T15:17:22.283Z,12.10
2022-09-18T15:23:28.133Z,12.10
2022-09-18T15:29:38.430Z,11.90
2022-09-18T15:35:40.280Z,11.90
2022-09-18T15:41:43.700Z,11.70
2022-09-18T15:47:45.951Z,11.60
2022-09-18T15:54:22.587Z,11.20
2022-09-18T16:00:33.681Z,10.40
2022-09-18T16:06:41.810Z,10.10
2022-09-18T16:12:50.658Z,9.90
2022-09-18T16:18:52.572Z,9.80
2022-09-18T16:24:56.744Z,9.80
2022-09-18T16:30:58.845Z,9.60
2022-09-18T16:37:00.608Z,9.50
2022-09-18T16:43:03.069Z,9.30
2022-09-18T16:49:04.844Z,9.10
2022-09-18T16:55:07.589Z,9.00
2022-09-18T17:01:09.794Z,8.90
2022-09-18T17:07:11.703Z,8.80
2022-09-18T17:13:13.968Z,8.90
2022-09-18T17:19:16.040Z,9.00
2022-09-18T17:25:18.010Z,9.10
2022-09-18T17:31:19.896Z,9.20
2022-09-18T17:37:21.856Z,9.20
2022-09-18T17:43:25.094Z,9.10
2022-09-18T17:49:26.873Z,8.90
2022-09-18T17:55:28.755Z,8.80
2022-09-18T18:01:30.768Z,8.60
2022-09-18T18:07:32.584Z,8.30
2022-09-18T18:13:39.172Z,8.20
2022-09-18T18:19:41.055Z,8.10
2022-09-18T18:25:42.975Z,7.90
2022-09-18T18:31:45.849Z,7.90
2022-09-18T18:37:48.077Z,8.30
2022-09-18T18:43:55.844Z,8.50
2022-09-18T18:49:57.641Z,8.50
2022-09-18T18:56:04.117Z,8.90
2022-09-18T19:02:06.515Z,9.20
2022-09-18T19:08:09.312Z,9.40
2022-09-18T19:14:14.089Z,9.40
2022-09-18T19:20:15.950Z,9.50
2022-09-18T19:26:21.157Z,9.50
2022-09-18T19:32:22.904Z,9.50
2022-09-18T19:38:25.149Z,9.70
2022-09-18T19:44:38.826Z,9.70
2022-09-18T19:50:40.785Z,9.70
2022-09-18T19:56:47.599Z,9.80
2022-09-18T20:02:50.131Z,9.80
2022-09-18T20:08:51.907Z,9.80
2022-09-18T20:14:53.712Z,9.80
2022-09-18T20:20:55.467Z,10.00
2022-09-18T20:26:58.278Z,10.00
2022-09-18T20:33:01.158Z,10.10
2022-09-18T20:39:03.684Z,10.10
2022-09-18T20:45:06.097Z,10.10
2022-09-18T20:51:10.737Z,10.10
2022-09-18T20:57:13.539Z,10.00
2022-09-18T21:03:21.083Z,10.00
2022-09-18T21:09:27.423Z,9.90
2022-09-18T21:15:29.293Z,10.00
2022-09-18T21:21:36.381Z,9.90
2022-09-18T21:27:38.217Z,9.90
2022-09-18T21:33:41.373Z,9.90
2022-09-18T21:39:44.037Z,9.90
2022-09-18T21:45:45.889Z,9.80
2022-09-18T21:51:47.735Z,9.90
2022-09-18T21:57:49.797Z,9.90
2022-09-18T22:03:56.266Z,9.90
2022-09-18T22:09:58.414Z,9.90
2022-09-18T22:16:01.602Z,9.90
2022-09-18T22:22:03.745Z,9.80
2022-09-18T22:28:05.604Z,9.80
2022-09-18T22:34:07.465Z,9.70
2022-09-18T22:40:09.626Z,9.60
2022-09-18T22:46:13.533Z,9.60
2022-09-18T22:52:15.336Z,9.70
2022-09-18T22:58:17.124Z,9.60
2022-09-18T23:04:20.830Z,9.70
2022-09-18T23:10:22.740Z,9.60
2022-09-18T23:16:26.857Z,9.60
2022-09-18T23:22:28.701Z,9.60
2022-09-18T23:28:35.852Z,9.70
2022-09-18T23:34:37.907Z,9.70
2022-09-18T23:40:39.698Z,9.70
2022-09-18T23:46:42.676Z,9.80
2022-09-18T23:52:44.446Z,9.80
2022-09-18T23:58:46.274Z,9.90
